Latest Coastal Weather Observations for Moorabbin Airport

IDV60701

Issued at 12:25 am EDT Monday 24 November 2014 (issued every 10 minutes, with the page automatically refreshed every 10 minutes)

About coastal observations | Map of coastal stations | Coastal observations for VIC | Marine services | Other Formats
Station Details ID: 086077 Name: MOORABBIN AIRPORT Lat: -37.98 Lon: 145.10 Height: 12.1 m
Data from the previous 72 hours. | See also: Recent months at Moorabbin Airport
Date/Time
EDT
Temp

°C
Wind Pressure Rain
since 9am
mm
Weather Cloud Vis
km
Sea
Height
m
Swell
Dir
 
Speed
knots
Gust
knots
hPa Trend Height
m
Period
s
Dir
24/12:00am 15.5 SE 5 7 1012.6 - 0.0 - Mostly cloudy 10 - - - -
 
Date/Time
EDT
Temp

°C
Wind Pressure Rain
since 9am
mm
Weather Cloud Vis
km
Sea
Height
m
Swell
Dir
 
Speed
knots
Gust
knots
hPa Trend Height
m
Period
s
Dir
23/11:30pm 16.0 SE 6 8 1013.0 - 0.0 - - 10 - - - -
23/11:00pm 16.2 ESE 6 8 1013.1 - 0.0 - - 10 - - - -
23/10:30pm 16.6 S 5 7 1013.7 - 0.0 - - 10 - - - -
23/10:00pm 16.7 SSE 7 11 1013.4 - 0.0 - - 10 - - - -
23/09:30pm 16.6 SE 7 9 1013.1 - 0.0 - - 10 - - - -
23/09:00pm 16.7 SE 8 11 1013.0 - 0.0 - Cloudy 10 - - - -
23/08:30pm 17.2 SE 8 9 1013.4 - 0.0 - - 10 - - - -
23/08:00pm 17.8 SE 10 13 1012.9 - 0.0 - - 10 - - - -
23/07:30pm 18.3 SSE 8 11 1013.1 - 0.0 - - 10 - - - -
23/07:00pm 18.7 SE 11 14 1012.9 - 0.0 - - 10 - - - -
23/06:30pm 19.3 SE 13 16 1012.6 - 0.0 - - 10 - - - -
23/06:00pm 20.2 SE 13 16 1012.4 - 0.0 - Partly cloudy 10 - - - -
23/05:30pm 21.1 SE 13 16 1012.0 - 0.0 - - 10 - - - -
23/05:00pm 22.9 SSE 11 13 1011.6 - 0.0 - - 10 - - - -
23/04:30pm 23.9 S 10 13 1011.4 - 0.0 - - 10 - - - -
23/04:00pm 22.6 S 14 19 1010.9 - 0.0 - - 10 - - - -
23/03:30pm 22.7 SSW 13 19 1010.8 - 0.0 - - 10 - - - -
23/03:00pm 22.4 SSW 13 17 1010.7 - 0.0 - - 10 - - - -
23/02:30pm 22.1 SSW 12 16 1010.6 - 0.0 - - 10 - - - -
23/02:00pm 22.6 SSW 11 15 1010.7 - 0.0 - - 10 - - - -
23/01:30pm 21.0 SW 11 14 1011.1 - 0.0 - - 10 - - - -
23/01:00pm 20.6 SW 11 13 1011.3 - 0.0 - - 10 - - - -
23/12:30pm 20.7 SSW 9 11 1011.5 - 0.0 - - 10 - - - -
23/12:00pm 20.2 SW 8 11 1011.6 - 0.0 - - 10 - - - -
23/11:30am 20.3 SW 8 12 1011.9 - 0.0 - - 10 - - - -
23/11:00am 19.4 SW 7 11 1012.1 - 0.0 - - 10 - - - -
23/10:30am 18.9 SSW 7 10 1012.4 - 0.0 - Partly cloudy 10 - - - -
23/10:00am 18.6 SW 7 9 1012.6 - 0.0 - Partly cloudy 10 - - - -
23/09:30am 18.4 SW 7 11 1012.6 - 0.0 - Partly cloudy 10 - - - -
23/09:00am 18.4 SW 6 9 1012.8 - 0.0 - Cloudy 10 - - - -
23/08:30am 17.8 SW 6 8 1012.5 - 0.0 - Partly cloudy 10 - - - -
23/08:00am 17.9 SW 5 8 1012.3 - 0.0 - Partly cloudy 10 - - - -
23/07:30am 17.6 SSW 3 4 1011.9 - 0.0 - Partly cloudy 10 - - - -
23/07:00am 16.8 SSW 3 4 1011.8 - 0.0 - Partly cloudy 10 - - - -
23/06:30am 16.6 SSW 2 3 1011.5 - 0.0 - Cloudy 10 - - - -
23/06:00am 16.9 CALM 0 0 1011.3 - 0.0 - Cloudy 10 - - - -
23/05:30am 17.0 WNW 3 4 1011.4 - 0.0 - Partly cloudy 10 - - - -
23/05:00am 17.1 W 4 5 1011.1 - 0.0 - Partly cloudy 10 - - - -
23/04:30am 17.3 WSW 5 7 1011.0 - 0.0 - Cloudy 10 - - - -
23/04:00am 17.4 WSW 6 10 1010.5 - 0.0 - Cloudy 10 - - - -
23/03:30am 17.3 WSW 7 9 1010.1 - 0.0 - Partly cloudy 10 - - - -
23/03:00am 17.2 W 3 5 1009.9 - 0.0 - Mostly cloudy 10 - - - -
23/02:30am 17.3 W 4 6 1010.0 - 0.0 - - 10 - - - -
23/02:00am 17.3 W 4 5 1009.7 - 0.0 - - 10 - - - -
23/01:30am 17.5 WSW 4 7 1009.9 - 0.0 - - 10 - - - -
23/01:00am 17.3 SW 3 5 1009.8 - 0.0 - - 10 - - - -
23/12:30am 17.8 SW 4 6 1009.6 - 0.0 - - 10 - - - -
23/12:00am 17.7 SW 6 8 1009.3 - 0.0 - Partly cloudy 10 - - - -
 
Date/Time
EDT
Temp

°C
Wind Pressure Rain
since 9am
mm
Weather Cloud Vis
km
Sea
Height
m
Swell
Dir
 
Speed
knots
Gust
knots
hPa Trend Height
m
Period
s
Dir
22/11:30pm 18.1 SW 7 10 1009.1 - 0.0 - - 10 - - - -
22/11:00pm 18.6 SW 4 7 1009.3 - 0.0 - - 10 - - - -
22/10:30pm 19.0 SW 9 15 1008.5 - 0.0 - - 10 - - - -
22/10:00pm 19.4 SW 8 13 1007.9 - 0.0 - - 10 - - - -
22/09:30pm 20.7 SSW 13 19 1007.2 - 0.0 - Partly cloudy 10 - - - -
22/09:23pm 22.5 SSW 15 18 1007.0 - 0.0 - Partly cloudy 10 - - - -
22/09:00pm 28.2 NNW 11 18 1006.0 - 0.0 - Mostly cloudy 10 - - - -
22/08:30pm 28.6 NW 9 12 1005.8 - 0.0 - - 10 - - - -
22/08:01pm 29.5 NNW 15 26 1005.3 - 0.0 - - 10 - - - -
22/08:00pm 29.6 NNW 14 26 1005.3 - 0.0 - - 10 - - - -
22/07:30pm 29.2 N 11 16 1004.9 - 0.0 - - 10 - - - -
22/07:16pm 29.6 N 15 25 1004.5 - 0.0 - - 10 - - - -
22/07:00pm 30.1 NNW 16 22 1004.5 - 0.0 - - 10 - - - -
22/06:30pm 30.2 NNW 16 25 1005.0 - 0.0 - - 10 - - - -
22/06:00pm 30.6 NNW 16 26 1004.9 - 0.0 - Mostly cloudy 10 - - - -
22/05:51pm 30.4 N 16 26 1005.0 - 0.0 - - 10 - - - -
22/05:30pm 30.7 N 17 26 1004.8 - 0.0 - - 10 - - - -
22/05:00pm 31.0 N 20 31 1004.9 - 0.0 - - 10 - - - -
22/04:30pm 30.9 N 17 27 1005.0 - 0.0 - - 10 - - - -
22/04:28pm 30.7 N 17 27 1004.9 - 0.0 - - 10 - - - -
22/04:00pm 29.2 N 17 25 1005.7 - 0.0 - - 10 - - - -
22/03:30pm 29.1 N 17 24 1006.6 - 0.0 - Partly cloudy 10 - - - -
22/03:00pm 28.3 N 17 23 1007.0 - 0.0 - Mostly clear 10 - - - -
22/02:30pm 28.4 N 17 23 1007.0 - 0.0 - Partly cloudy 10 - - - -
22/02:00pm 27.5 N 19 25 1007.1 - 0.0 - Partly cloudy 10 - - - -
22/01:30pm 26.7 N 19 25 1007.6 - 0.0 - Partly cloudy 10 - - - -
22/01:00pm 24.6 N 19 23 1007.8 - 0.0 - Partly cloudy 10 - - - -
22/12:35pm 24.0 N 16 26 1009.0 - 0.0 - Partly cloudy 10 - - - -
22/12:30pm 24.3 NNW 15 20 1010.0 - 0.0 - Partly cloudy 10 - - - -
22/12:03pm 24.8 N 15 26 1010.2 - 0.0 - Partly cloudy 10 - - - -
22/12:00pm 24.6 N 14 20 1010.2 - 0.0 - Cloudy 10 - - - -
22/11:30am 23.2 N 10 13 1010.1 - 0.0 - Partly cloudy 10 - - - -
22/11:00am 22.2 N 9 14 1010.2 - 0.0 - Partly cloudy 10 - - - -
22/10:30am 21.3 N 9 13 1010.2 - 0.0 - Partly cloudy 10 - - - -
22/10:00am 20.5 NNE 7 9 1010.3 - 0.0 - Partly cloudy 10 - - - -
22/09:30am 18.9 N 2 4 1011.0 - 0.0 - - 10 - - - -
22/09:00am 17.6 ENE 3 6 1011.0 - 0.2 - Cloudy 10 - - - -
22/08:30am 15.9 NNE 3 5 1011.1 - 0.2 - - 10 - - - -
22/08:00am 15.3 ENE 3 4 1010.8 - 0.2 - - 10 - - - -
22/07:30am 14.6 SW 3 4 1010.8 - 0.2 - - 10 - - - -
22/07:00am 13.9 SSW 4 5 1010.7 - 0.2 - Partly cloudy 10 - - - -
22/06:30am 12.6 N 1 3 1010.1 - 0.2 - - 10 - - - -
22/06:00am 12.6 N 5 7 1009.9 - 0.2 - Cloudy 10 - - - -
22/05:30am 12.3 N 6 7 1009.9 - 0.2 - - 10 - - - -
22/05:00am 12.3 N 3 4 1010.1 - 0.2 - - 10 - - - -
22/04:30am 12.0 N 5 6 1009.8 - 0.2 - - 10 - - - -
22/04:00am 11.8 N 2 5 1009.9 - 0.2 - - 10 - - - -
22/03:30am 12.4 CALM 0 0 1009.9 - 0.2 - - 10 - - - -
22/03:00am 12.2 CALM 0 0 1009.9 - 0.2 - - 10 - - - -
22/02:30am 12.4 CALM 0 0 1010.5 - 0.2 - - 10 - - - -
22/02:00am 12.5 CALM 0 3 1011.0 - 0.2 - - 10 - - - -
22/01:30am 12.9 ESE 4 6 1011.1 - 0.2 - - 10 - - - -
22/01:00am 12.7 SSE 5 7 1011.4 - 0.2 - - 10 - - - -
22/12:30am 12.9 E 4 6 1012.0 - 0.2 - - 10 - - - -
22/12:00am 13.0 ESE 4 5 1012.4 - 0.2 - - 10 - - - -
 
Date/Time
EDT
Temp

°C
Wind Pressure Rain
since 9am
mm
Weather Cloud Vis
km
Sea
Height
m
Swell
Dir
 
Speed
knots
Gust
knots
hPa Trend Height
m
Period
s
Dir
21/11:30pm 13.5 ESE 7 9 1012.5 - 0.2 - - 10 - - - -
21/11:00pm 13.6 SE 7 11 1012.7 - 0.2 - - 10 - - - -
21/10:30pm 13.9 ESE 8 11 1012.7 - 0.2 - - 10 - - - -
21/10:00pm 14.3 SE 9 13 1012.5 - 0.2 - - 10 - - - -
21/09:30pm 14.9 SE 9 13 1012.6 - 0.2 - - 10 - - - -
21/09:00pm 15.7 SE 11 14 1012.3 - 0.2 - - 10 - - - -
21/08:30pm 16.3 SE 10 13 1012.1 - 0.2 - - 10 - - - -
21/08:00pm 17.1 SE 11 14 1011.6 - 0.2 - - 10 - - - -
21/07:30pm 18.6 SE 11 13 1011.5 - 0.2 - - 10 - - - -
21/07:00pm 19.1 SSW 7 9 1011.1 - 0.2 - - 10 - - - -
21/06:30pm 19.6 SSW 7 10 1010.8 - 0.2 - - 10 - - - -
21/06:00pm 19.4 SSW 7 9 1010.8 - 0.2 - - 10 - - - -
21/05:30pm 19.6 SSW 8 10 1010.7 - 0.2 - - 10 - - - -
21/05:00pm 19.3 S 7 10 1010.8 - 0.2 - - 10 - - - -
21/04:30pm 19.3 SSW 9 12 1010.9 - 0.2 - - 10 - - - -
21/04:00pm 18.9 SSW 9 13 1011.1 - 0.2 - - 10 - - - -
21/03:30pm 19.2 SSW 8 12 1011.2 - 0.2 - - 10 - - - -
21/03:00pm 20.0 SW 7 11 1011.2 - 0.2 - - 10 - - - -
21/02:30pm 20.3 W 8 13 1011.4 - 0.2 - - 10 - - - -
21/02:00pm 19.1 WSW 7 10 1011.5 - 0.2 - - 10 - - - -
21/01:30pm 18.8 SW 8 11 1011.6 - 0.2 - - 10 - - - -
21/01:00pm 18.4 WSW 8 11 1011.6 - 0.2 - - 10 - - - -
21/12:30pm 18.2 WSW 10 13 1011.7 - 0.2 - - 10 - - - -
21/12:00pm 17.7 WSW 10 17 1011.8 - 0.2 - Partly cloudy 10 - - - -
21/11:30am 18.4 WSW 12 16 1012.0 - 0.2 - - 10 - - - -
21/11:00am 17.5 WSW 9 15 1011.9 - 0.2 - Partly cloudy 10 - - - -
21/10:30am 17.9 W 9 12 1011.4 - 0.0 - Partly cloudy 10 - - - -
21/10:00am 17.5 W 8 14 1010.9 - 0.0 - Partly cloudy 10 - - - -
21/09:30am 17.4 W 11 17 1011.0 - 0.0 - Partly cloudy 10 - - - -
21/09:00am 16.7 WSW 11 16 1011.0 - 6.2 - Cloudy 10 - - - -
21/08:39am 16.1 WSW 11 17 1010.9 - 6.2 - Partly cloudy 10 - - - -
21/08:30am 16.3 SW 13 19 1011.0 - 6.2 - Partly cloudy 10 - - - -
21/08:18am 15.8 WSW 12 18 1010.6 - 6.2 - Partly cloudy 10 - - - -
21/08:00am 16.6 W 12 18 1010.0 - 6.2 - Partly cloudy 10 - - - -
21/07:30am 16.6 W 10 17 1008.9 - 6.2 - Cloudy 10 - - - -
21/07:00am 16.5 W 12 16 1008.5 - 6.2 - Partly cloudy 10 - - - -
21/06:30am 16.4 W 9 15 1008.2 - 6.2 - Partly cloudy 10 - - - -
21/06:00am 17.1 W 9 15 1008.1 - 6.2 - Cloudy 10 - - - -
21/05:30am 16.4 W 9 15 1007.7 - 6.2 - Partly cloudy 10 - - - -
21/05:00am 16.5 WSW 13 22 1007.2 - 6.2 - Cloudy 10 - - - -
21/04:30am 16.9 W 9 17 1006.7 - 6.2 - Cloudy 10 - - - -
21/04:11am 17.2 WSW 9 13 1006.3 - 6.2 - Partly cloudy 10 - - - -
21/04:00am 17.3 WSW 9 15 1006.2 - 6.2 - Partly cloudy 10 - - - -
21/03:59am 17.2 SW 9 15 1006.2 - 6.2 - Partly cloudy 10 - - - -
21/03:30am 17.5 SW 8 12 1005.8 - 6.2 - Partly cloudy 10 - - - -
21/03:00am 18.4 W 12 19 1005.4 - 6.2 - Cloudy 10 - - - -
21/02:30am 19.2 N 6 7 1004.9 - 6.2 - Partly cloudy 10 - - - -
21/02:00am 19.3 NNW 7 9 1004.9 - 6.2 - Partly cloudy 10 - - - -
21/01:30am 19.1 NNW 7 11 1004.9 - 6.2 - Partly cloudy 10 - - - -
21/01:00am 19.2 N 7 8 1005.1 - 6.2 - - 10 - - - -
21/12:30am 19.2 N 8 10 1005.0 - 6.2 - Partly cloudy 10 - - - -

Other Formats:

Comma delimited format used in spreadsheet applications
http://www.bom.gov.au/fwo/IDV60701/IDV60701.94870.axf

JavaScript Object Notation format (JSON) in row-major order
http://www.bom.gov.au/fwo/IDV60701/IDV60701.94870.json